Bankersmith, Texas
Current Conditions -  °F | °C
As of 10:15 AM on Thursday 18 Dec 2014 (Local Time) from KT82 Reporting Station
Overcast Overcast  
Wind Chill: 14°   Ceiling: 200
Heat Index: 14°   Visibility: 7mi
Dew Point: 13°   Wind: 3mph
Humidity: 98%   Direction: 270°W
Pressure: 30.15"   Gusts: NA
Location:  30.3069°N, 98.8978°W
Report Text: KT82 181615Z AUTO 27003KT 7SM OVC002 14/13 A3015 RMK AO2 T01350132
Loading
Personal Weather Stations






























Interactive Weather Map New forecast layout! Learn more

10-Day Weather Forecast

Advertisements
Track Severe Weather on mobile